sensor_id;sensor_type;location;lat;lon;timestamp;temperature;humidity
52267;DHT22;38223;50.940;4.034;2023-08-24T00:01:12;21.30;99.90
52267;DHT22;38223;50.940;4.034;2023-08-24T00:03:43;21.20;99.90
52267;DHT22;38223;50.940;4.034;2023-08-24T00:06:16;21.00;99.90
52267;DHT22;38223;50.940;4.034;2023-08-24T00:08:43;20.80;99.90
52267;DHT22;38223;50.940;4.034;2023-08-24T00:11:19;20.70;99.90
52267;DHT22;38223;50.940;4.034;2023-08-24T00:13:48;20.70;99.90
52267;DHT22;38223;50.940;4.034;2023-08-24T00:16:20;20.80;99.90
52267;DHT22;38223;50.940;4.034;2023-08-24T00:18:55;20.70;99.90
52267;DHT22;38223;50.940;4.034;2023-08-24T00:21:25;20.80;99.90
52267;DHT22;38223;50.940;4.034;2023-08-24T00:24:00;20.80;99.90
52267;DHT22;38223;50.940;4.034;2023-08-24T00:26:27;20.90;99.90
52267;DHT22;38223;50.940;4.034;2023-08-24T00:28:58;21.10;99.90
52267;DHT22;38223;50.940;4.034;2023-08-24T00:31:33;21.10;99.90
52267;DHT22;38223;50.940;4.034;2023-08-24T00:34:07;21.10;99.90
52267;DHT22;38223;50.940;4.034;2023-08-24T00:36:34;21.00;99.90
52267;DHT22;38223;50.940;4.034;2023-08-24T00:39:08;21.00;99.90
52267;DHT22;38223;50.940;4.034;2023-08-24T00:41:37;21.00;99.90
52267;DHT22;38223;50.940;4.034;2023-08-24T00:44:06;21.00;99.90
52267;DHT22;38223;50.940;4.034;2023-08-24T00:46:40;21.00;99.90
52267;DHT22;38223;50.940;4.034;2023-08-24T00:49:11;21.00;99.90
52267;DHT22;38223;50.940;4.034;2023-08-24T00:51:43;21.10;99.90
52267;DHT22;38223;50.940;4.034;2023-08-24T00:54:12;21.10;99.90
52267;DHT22;38223;50.940;4.034;2023-08-24T00:56:45;21.20;99.90
52267;DHT22;38223;50.940;4.034;2023-08-24T00:59:20;21.40;99.90
52267;DHT22;38223;50.940;4.034;2023-08-24T01:01:50;21.40;99.90
52267;DHT22;38223;50.940;4.034;2023-08-24T01:04:24;21.30;99.90
52267;DHT22;38223;50.940;4.034;2023-08-24T01:06:56;21.30;99.90
52267;DHT22;38223;50.940;4.034;2023-08-24T01:09:28;21.20;99.90
52267;DHT22;38223;50.940;4.034;2023-08-24T01:12:14;21.20;99.90
52267;DHT22;38223;50.940;4.034;2023-08-24T01:15:04;21.20;99.90
52267;DHT22;38223;50.940;4.034;2023-08-24T01:17:31;21.20;99.90
52267;DHT22;38223;50.940;4.034;2023-08-24T01:20:06;21.30;99.90
52267;DHT22;38223;50.940;4.034;2023-08-24T01:22:56;21.40;99.90
52267;DHT22;38223;50.940;4.034;2023-08-24T01:25:36;21.50;99.90
52267;DHT22;38223;50.940;4.034;2023-08-24T01:28:03;21.50;99.90
52267;DHT22;38223;50.940;4.034;2023-08-24T01:30:38;21.60;99.90
52267;DHT22;38223;50.940;4.034;2023-08-24T01:33:13;21.50;99.90
52267;DHT22;38223;50.940;4.034;2023-08-24T01:35:44;21.50;99.90
52267;DHT22;38223;50.940;4.034;2023-08-24T01:38:14;21.40;99.90
52267;DHT22;38223;50.940;4.034;2023-08-24T01:43:29;21.30;99.90
52267;DHT22;38223;50.940;4.034;2023-08-24T01:46:04;21.20;99.90
52267;DHT22;38223;50.940;4.034;2023-08-24T01:48:38;21.10;99.90
52267;DHT22;38223;50.940;4.034;2023-08-24T01:51:10;20.90;99.90
52267;DHT22;38223;50.940;4.034;2023-08-24T01:53:42;20.60;99.90
52267;DHT22;38223;50.940;4.034;2023-08-24T01:56:15;20.30;99.90
52267;DHT22;38223;50.940;4.034;2023-08-24T01:58:47;19.90;99.90
52267;DHT22;38223;50.940;4.034;2023-08-24T02:01:17;19.70;99.90
52267;DHT22;38223;50.940;4.034;2023-08-24T02:03:47;19.60;99.90
52267;DHT22;38223;50.940;4.034;2023-08-24T02:06:20;19.50;99.90
52267;DHT22;38223;50.940;4.034;2023-08-24T02:08:52;19.60;99.90
52267;DHT22;38223;50.940;4.034;2023-08-24T02:11:21;19.80;99.90
52267;DHT22;38223;50.940;4.034;2023-08-24T02:13:53;19.90;99.90
52267;DHT22;38223;50.940;4.034;2023-08-24T02:16:25;20.00;99.90
52267;DHT22;38223;50.940;4.034;2023-08-24T02:19:00;20.00;99.90
52267;DHT22;38223;50.940;4.034;2023-08-24T02:21:28;20.10;99.90
52267;DHT22;38223;50.940;4.034;2023-08-24T02:24:02;20.00;99.90
52267;DHT22;38223;50.940;4.034;2023-08-24T02:26:29;19.90;99.90
52267;DHT22;38223;50.940;4.034;2023-08-24T02:29:05;19.70;99.90
52267;DHT22;38223;50.940;4.034;2023-08-24T02:31:34;19.70;99.90
52267;DHT22;38223;50.940;4.034;2023-08-24T02:34:07;19.70;99.90
52267;DHT22;38223;50.940;4.034;2023-08-24T02:36:36;19.80;99.90
52267;DHT22;38223;50.940;4.034;2023-08-24T02:39:06;19.90;99.90
52267;DHT22;38223;50.940;4.034;2023-08-24T02:41:36;20.00;99.90
52267;DHT22;38223;50.940;4.034;2023-08-24T02:44:08;20.00;99.90
52267;DHT22;38223;50.940;4.034;2023-08-24T02:46:40;20.00;99.90
52267;DHT22;38223;50.940;4.034;2023-08-24T02:49:10;20.00;99.90
52267;DHT22;38223;50.940;4.034;2023-08-24T02:51:41;20.00;99.90
52267;DHT22;38223;50.940;4.034;2023-08-24T02:54:13;19.90;99.90
52267;DHT22;38223;50.940;4.034;2023-08-24T02:56:46;19.90;99.90
52267;DHT22;38223;50.940;4.034;2023-08-24T02:59:14;20.00;99.90
52267;DHT22;38223;50.940;4.034;2023-08-24T03:01:45;20.20;99.90
52267;DHT22;38223;50.940;4.034;2023-08-24T03:04:17;20.30;99.90
52267;DHT22;38223;50.940;4.034;2023-08-24T03:06:47;20.40;99.90
52267;DHT22;38223;50.940;4.034;2023-08-24T03:09:21;20.40;99.90
52267;DHT22;38223;50.940;4.034;2023-08-24T03:11:49;20.50;99.90
52267;DHT22;38223;50.940;4.034;2023-08-24T03:14:25;20.40;99.90
52267;DHT22;38223;50.940;4.034;2023-08-24T03:16:54;20.30;99.90
52267;DHT22;38223;50.940;4.034;2023-08-24T03:19:26;20.30;99.90
52267;DHT22;38223;50.940;4.034;2023-08-24T03:21:59;20.10;99.90
52267;DHT22;38223;50.940;4.034;2023-08-24T03:24:32;20.00;99.90
52267;DHT22;38223;50.940;4.034;2023-08-24T03:27:04;20.10;99.90
52267;DHT22;38223;50.940;4.034;2023-08-24T03:29:36;20.50;99.90
52267;DHT22;38223;50.940;4.034;2023-08-24T03:32:11;20.80;99.90
52267;DHT22;38223;50.940;4.034;2023-08-24T03:34:45;21.10;99.90
52267;DHT22;38223;50.940;4.034;2023-08-24T03:37:14;21.30;99.90
52267;DHT22;38223;50.940;4.034;2023-08-24T03:39:46;21.10;99.90
52267;DHT22;38223;50.940;4.034;2023-08-24T03:42:16;21.10;99.90
52267;DHT22;38223;50.940;4.034;2023-08-24T03:44:47;21.00;99.90
52267;DHT22;38223;50.940;4.034;2023-08-24T03:47:19;21.00;99.90
52267;DHT22;38223;50.940;4.034;2023-08-24T03:49:51;21.10;99.90
52267;DHT22;38223;50.940;4.034;2023-08-24T03:52:25;21.10;99.90
52267;DHT22;38223;50.940;4.034;2023-08-24T03:54:59;21.10;99.90
52267;DHT22;38223;50.940;4.034;2023-08-24T03:57:32;21.50;99.90
52267;DHT22;38223;50.940;4.034;2023-08-24T04:00:07;21.50;99.90
52267;DHT22;38223;50.940;4.034;2023-08-24T04:02:47;21.80;99.90
52267;DHT22;38223;50.940;4.034;2023-08-24T04:05:12;22.00;99.90
52267;DHT22;38223;50.940;4.034;2023-08-24T04:07:44;22.00;99.90
52267;DHT22;38223;50.940;4.034;2023-08-24T04:10:14;21.90;99.90
52267;DHT22;38223;50.940;4.034;2023-08-24T04:12:47;21.80;99.90
52267;DHT22;38223;50.940;4.034;2023-08-24T04:15:19;21.60;99.90
52267;DHT22;38223;50.940;4.034;2023-08-24T04:17:50;21.40;99.90
52267;DHT22;38223;50.940;4.034;2023-08-24T04:20:22;21.20;99.90
52267;DHT22;38223;50.940;4.034;2023-08-24T04:22:56;21.10;99.90
52267;DHT22;38223;50.940;4.034;2023-08-24T04:25:28;20.90;99.90
52267;DHT22;38223;50.940;4.034;2023-08-24T04:28:01;20.50;99.90
52267;DHT22;38223;50.940;4.034;2023-08-24T04:30:30;20.10;99.90
52267;DHT22;38223;50.940;4.034;2023-08-24T04:33:02;19.90;99.90
52267;DHT22;38223;50.940;4.034;2023-08-24T04:35:37;19.90;99.90
52267;DHT22;38223;50.940;4.034;2023-08-24T04:38:07;19.80;99.90
52267;DHT22;38223;50.940;4.034;2023-08-24T04:40:51;19.90;99.90
52267;DHT22;38223;50.940;4.034;2023-08-24T04:43:24;19.70;99.90
52267;DHT22;38223;50.940;4.034;2023-08-24T04:45:56;19.70;99.90
52267;DHT22;38223;50.940;4.034;2023-08-24T04:48:27;19.70;99.90
52267;DHT22;38223;50.940;4.034;2023-08-24T04:51:01;19.60;99.90
52267;DHT22;38223;50.940;4.034;2023-08-24T04:53:36;19.60;99.90
52267;DHT22;38223;50.940;4.034;2023-08-24T04:56:05;19.70;99.90
52267;DHT22;38223;50.940;4.034;2023-08-24T04:58:39;19.90;99.90
52267;DHT22;38223;50.940;4.034;2023-08-24T05:01:18;19.80;99.90
52267;DHT22;38223;50.940;4.034;2023-08-24T05:03:43;19.70;99.90
52267;DHT22;38223;50.940;4.034;2023-08-24T05:06:17;19.60;99.90
52267;DHT22;38223;50.940;4.034;2023-08-24T05:08:44;19.80;99.90
52267;DHT22;38223;50.940;4.034;2023-08-24T05:11:18;20.00;99.90
52267;DHT22;38223;50.940;4.034;2023-08-24T05:13:49;20.10;99.90
52267;DHT22;38223;50.940;4.034;2023-08-24T05:16:26;19.70;99.90
52267;DHT22;38223;50.940;4.034;2023-08-24T05:18:58;19.50;99.90
52267;DHT22;38223;50.940;4.034;2023-08-24T05:21:29;19.40;99.90
52267;DHT22;38223;50.940;4.034;2023-08-24T05:23:59;19.30;99.90
52267;DHT22;38223;50.940;4.034;2023-08-24T05:26:30;19.30;99.90
52267;DHT22;38223;50.940;4.034;2023-08-24T05:29:02;19.20;99.90
52267;DHT22;38223;50.940;4.034;2023-08-24T05:31:40;19.20;99.90
52267;DHT22;38223;50.940;4.034;2023-08-24T05:34:09;19.30;99.90
52267;DHT22;38223;50.940;4.034;2023-08-24T05:36:41;19.50;99.90
52267;DHT22;38223;50.940;4.034;2023-08-24T05:39:12;19.70;99.90
52267;DHT22;38223;50.940;4.034;2023-08-24T05:41:49;19.70;99.90
52267;DHT22;38223;50.940;4.034;2023-08-24T05:44:16;19.60;99.90
52267;DHT22;38223;50.940;4.034;2023-08-24T05:46:49;19.30;99.90
52267;DHT22;38223;50.940;4.034;2023-08-24T05:49:20;19.20;99.90
52267;DHT22;38223;50.940;4.034;2023-08-24T05:51:54;19.20;99.90
52267;DHT22;38223;50.940;4.034;2023-08-24T05:54:27;19.20;99.90
52267;DHT22;38223;50.940;4.034;2023-08-24T05:57:00;19.20;99.90
52267;DHT22;38223;50.940;4.034;2023-08-24T05:59:36;19.30;99.90
52267;DHT22;38223;50.940;4.034;2023-08-24T06:02:01;19.40;99.90
52267;DHT22;38223;50.940;4.034;2023-08-24T06:04:33;19.30;99.90
52267;DHT22;38223;50.940;4.034;2023-08-24T06:07:05;19.40;99.90
52267;DHT22;38223;50.940;4.034;2023-08-24T06:09:40;19.40;99.90
52267;DHT22;38223;50.940;4.034;2023-08-24T06:12:09;19.40;99.90
52267;DHT22;38223;50.940;4.034;2023-08-24T06:14:44;19.40;99.90
52267;DHT22;38223;50.940;4.034;2023-08-24T06:17:13;19.50;99.90
52267;DHT22;38223;50.940;4.034;2023-08-24T06:19:49;19.60;99.90
52267;DHT22;38223;50.940;4.034;2023-08-24T06:22:19;19.70;99.90
52267;DHT22;38223;50.940;4.034;2023-08-24T06:24:54;20.00;99.90
52267;DHT22;38223;50.940;4.034;2023-08-24T06:27:24;20.30;99.90
52267;DHT22;38223;50.940;4.034;2023-08-24T06:29:57;20.50;99.90
52267;DHT22;38223;50.940;4.034;2023-08-24T06:32:28;20.60;99.90
52267;DHT22;38223;50.940;4.034;2023-08-24T06:35:01;20.60;99.90
52267;DHT22;38223;50.940;4.034;2023-08-24T06:37:34;20.50;99.90
52267;DHT22;38223;50.940;4.034;2023-08-24T06:40:02;20.50;99.90
52267;DHT22;38223;50.940;4.034;2023-08-24T06:42:32;20.50;99.90
52267;DHT22;38223;50.940;4.034;2023-08-24T06:45:10;20.40;99.90
52267;DHT22;38223;50.940;4.034;2023-08-24T06:47:44;20.40;99.90
52267;DHT22;38223;50.940;4.034;2023-08-24T06:50:18;20.40;99.90
52267;DHT22;38223;50.940;4.034;2023-08-24T06:52:48;20.40;99.90
52267;DHT22;38223;50.940;4.034;2023-08-24T06:55:20;20.50;99.90
52267;DHT22;38223;50.940;4.034;2023-08-24T06:57:54;20.60;99.90
52267;DHT22;38223;50.940;4.034;2023-08-24T07:00:26;20.70;99.90
52267;DHT22;38223;50.940;4.034;2023-08-24T07:02:55;21.00;99.90
52267;DHT22;38223;50.940;4.034;2023-08-24T07:05:26;21.30;99.90
52267;DHT22;38223;50.940;4.034;2023-08-24T07:07:55;21.60;99.90
52267;DHT22;38223;50.940;4.034;2023-08-24T07:10:27;21.70;99.90
52267;DHT22;38223;50.940;4.034;2023-08-24T07:12:58;21.90;99.90
52267;DHT22;38223;50.940;4.034;2023-08-24T07:15:30;22.30;99.90
52267;DHT22;38223;50.940;4.034;2023-08-24T07:17:58;22.50;99.90
52267;DHT22;38223;50.940;4.034;2023-08-24T07:20:32;22.40;99.90
52267;DHT22;38223;50.940;4.034;2023-08-24T07:22:59;22.50;99.90
52267;DHT22;38223;50.940;4.034;2023-08-24T07:25:28;22.70;99.90
52267;DHT22;38223;50.940;4.034;2023-08-24T07:28:01;22.60;99.90
52267;DHT22;38223;50.940;4.034;2023-08-24T07:30:31;22.20;99.90
52267;DHT22;38223;50.940;4.034;2023-08-24T07:33:07;22.30;99.90
52267;DHT22;38223;50.940;4.034;2023-08-24T07:35:38;22.10;99.90
52267;DHT22;38223;50.940;4.034;2023-08-24T07:38:10;22.10;99.90
52267;DHT22;38223;50.940;4.034;2023-08-24T07:40:40;22.10;99.90
52267;DHT22;38223;50.940;4.034;2023-08-24T07:43:14;22.10;99.90
52267;DHT22;38223;50.940;4.034;2023-08-24T07:45:45;22.10;99.90
52267;DHT22;38223;50.940;4.034;2023-08-24T07:48:20;22.00;99.90
52267;DHT22;38223;50.940;4.034;2023-08-24T07:50:49;22.20;99.90
52267;DHT22;38223;50.940;4.034;2023-08-24T07:53:21;22.20;99.90
52267;DHT22;38223;50.940;4.034;2023-08-24T07:55:56;22.10;99.90
52267;DHT22;38223;50.940;4.034;2023-08-24T07:58:27;22.00;99.90
52267;DHT22;38223;50.940;4.034;2023-08-24T08:01:00;21.70;99.90
52267;DHT22;38223;50.940;4.034;2023-08-24T08:03:32;21.70;99.90
52267;DHT22;38223;50.940;4.034;2023-08-24T08:06:04;21.60;99.90
52267;DHT22;38223;50.940;4.034;2023-08-24T08:08:33;21.60;99.90
52267;DHT22;38223;50.940;4.034;2023-08-24T08:11:05;21.90;99.90
52267;DHT22;38223;50.940;4.034;2023-08-24T08:13:35;22.50;99.90
52267;DHT22;38223;50.940;4.034;2023-08-24T08:16:06;22.50;99.90
52267;DHT22;38223;50.940;4.034;2023-08-24T08:18:36;22.20;99.90
52267;DHT22;38223;50.940;4.034;2023-08-24T08:21:15;22.20;99.90
52267;DHT22;38223;50.940;4.034;2023-08-24T08:23:46;22.60;99.90
52267;DHT22;38223;50.940;4.034;2023-08-24T08:26:14;22.90;99.90
52267;DHT22;38223;50.940;4.034;2023-08-24T08:28:43;22.70;99.90
52267;DHT22;38223;50.940;4.034;2023-08-24T08:31:13;22.80;99.90
52267;DHT22;38223;50.940;4.034;2023-08-24T08:33:43;22.80;99.90
52267;DHT22;38223;50.940;4.034;2023-08-24T08:36:16;22.60;99.90
52267;DHT22;38223;50.940;4.034;2023-08-24T08:38:53;22.30;99.90
52267;DHT22;38223;50.940;4.034;2023-08-24T08:41:22;22.00;99.90
52267;DHT22;38223;50.940;4.034;2023-08-24T08:43:53;21.70;99.90
52267;DHT22;38223;50.940;4.034;2023-08-24T08:46:27;21.60;99.90
52267;DHT22;38223;50.940;4.034;2023-08-24T08:49:00;21.70;99.90
52267;DHT22;38223;50.940;4.034;2023-08-24T08:51:32;22.00;99.90
52267;DHT22;38223;50.940;4.034;2023-08-24T08:54:08;21.90;99.90
52267;DHT22;38223;50.940;4.034;2023-08-24T08:56:40;21.80;99.90
52267;DHT22;38223;50.940;4.034;2023-08-24T08:59:11;21.70;99.90
52267;DHT22;38223;50.940;4.034;2023-08-24T09:01:43;22.00;99.90
52267;DHT22;38223;50.940;4.034;2023-08-24T09:04:15;22.40;99.90
52267;DHT22;38223;50.940;4.034;2023-08-24T09:06:48;22.50;99.90
52267;DHT22;38223;50.940;4.034;2023-08-24T09:09:21;22.60;99.90
52267;DHT22;38223;50.940;4.034;2023-08-24T09:11:57;22.70;99.90
52267;DHT22;38223;50.940;4.034;2023-08-24T09:14:28;22.70;99.90
52267;DHT22;38223;50.940;4.034;2023-08-24T09:16:59;22.60;99.90
52267;DHT22;38223;50.940;4.034;2023-08-24T09:19:33;22.30;99.90
52267;DHT22;38223;50.940;4.034;2023-08-24T09:22:05;22.20;99.90
52267;DHT22;38223;50.940;4.034;2023-08-24T09:24:37;22.00;99.90
52267;DHT22;38223;50.940;4.034;2023-08-24T09:27:20;21.80;99.90
52267;DHT22;38223;50.940;4.034;2023-08-24T09:29:54;21.70;99.90
52267;DHT22;38223;50.940;4.034;2023-08-24T09:32:30;21.60;99.90
52267;DHT22;38223;50.940;4.034;2023-08-24T09:35:08;21.50;99.90
52267;DHT22;38223;50.940;4.034;2023-08-24T09:37:40;21.60;99.90
52267;DHT22;38223;50.940;4.034;2023-08-24T09:40:12;21.60;99.90
52267;DHT22;38223;50.940;4.034;2023-08-24T09:42:43;21.50;99.90
52267;DHT22;38223;50.940;4.034;2023-08-24T09:45:15;21.50;99.90
52267;DHT22;38223;50.940;4.034;2023-08-24T09:47:50;21.50;99.90
52267;DHT22;38223;50.940;4.034;2023-08-24T09:50:21;21.60;99.90
52267;DHT22;38223;50.940;4.034;2023-08-24T09:52:56;21.60;99.90
52267;DHT22;38223;50.940;4.034;2023-08-24T09:55:30;21.70;99.90
52267;DHT22;38223;50.940;4.034;2023-08-24T09:58:02;21.70;99.90
52267;DHT22;38223;50.940;4.034;2023-08-24T10:00:37;21.70;99.90
52267;DHT22;38223;50.940;4.034;2023-08-24T10:03:08;21.70;99.90
52267;DHT22;38223;50.940;4.034;2023-08-24T10:05:40;21.70;99.90
52267;DHT22;38223;50.940;4.034;2023-08-24T10:08:12;21.70;99.90
52267;DHT22;38223;50.940;4.034;2023-08-24T10:10:46;21.60;99.90
52267;DHT22;38223;50.940;4.034;2023-08-24T10:13:22;21.50;99.90
52267;DHT22;38223;50.940;4.034;2023-08-24T10:15:53;21.30;99.90
52267;DHT22;38223;50.940;4.034;2023-08-24T10:18:27;21.30;99.90
52267;DHT22;38223;50.940;4.034;2023-08-24T10:21:02;21.30;99.90
52267;DHT22;38223;50.940;4.034;2023-08-24T10:23:38;21.30;99.90
52267;DHT22;38223;50.940;4.034;2023-08-24T10:26:11;21.30;99.90
52267;DHT22;38223;50.940;4.034;2023-08-24T10:28:42;21.40;99.90
52267;DHT22;38223;50.940;4.034;2023-08-24T10:31:17;21.50;99.90
52267;DHT22;38223;50.940;4.034;2023-08-24T10:33:47;21.60;99.90
52267;DHT22;38223;50.940;4.034;2023-08-24T10:36:19;21.70;99.90
52267;DHT22;38223;50.940;4.034;2023-08-24T10:38:53;21.80;99.90
52267;DHT22;38223;50.940;4.034;2023-08-24T10:41:30;21.90;99.90
52267;DHT22;38223;50.940;4.034;2023-08-24T10:44:05;22.10;99.90
52267;DHT22;38223;50.940;4.034;2023-08-24T10:46:37;22.40;99.90
52267;DHT22;38223;50.940;4.034;2023-08-24T10:49:11;22.50;99.90
52267;DHT22;38223;50.940;4.034;2023-08-24T10:51:48;22.80;99.90
52267;DHT22;38223;50.940;4.034;2023-08-24T10:54:18;22.90;99.90
52267;DHT22;38223;50.940;4.034;2023-08-24T10:56:55;23.10;99.90
52267;DHT22;38223;50.940;4.034;2023-08-24T10:59:25;23.20;99.90
52267;DHT22;38223;50.940;4.034;2023-08-24T11:01:57;23.10;99.90
52267;DHT22;38223;50.940;4.034;2023-08-24T11:04:27;22.90;99.90
52267;DHT22;38223;50.940;4.034;2023-08-24T11:06:58;22.60;99.90
52267;DHT22;38223;50.940;4.034;2023-08-24T11:09:50;22.50;99.90
52267;DHT22;38223;50.940;4.034;2023-08-24T11:12:18;22.50;99.90
52267;DHT22;38223;50.940;4.034;2023-08-24T11:14:52;22.60;99.90
52267;DHT22;38223;50.940;4.034;2023-08-24T11:17:31;22.60;99.90
52267;DHT22;38223;50.940;4.034;2023-08-24T11:20:00;22.60;99.90
52267;DHT22;38223;50.940;4.034;2023-08-24T11:22:31;22.70;99.90
52267;DHT22;38223;50.940;4.034;2023-08-24T11:25:03;22.80;99.90
52267;DHT22;38223;50.940;4.034;2023-08-24T11:27:38;22.90;99.90
52267;DHT22;38223;50.940;4.034;2023-08-24T11:30:08;22.90;99.90
52267;DHT22;38223;50.940;4.034;2023-08-24T11:32:43;23.00;99.90
52267;DHT22;38223;50.940;4.034;2023-08-24T11:35:12;23.10;99.90
52267;DHT22;38223;50.940;4.034;2023-08-24T11:37:50;23.10;99.90
52267;DHT22;38223;50.940;4.034;2023-08-24T11:40:21;23.20;99.90
52267;DHT22;38223;50.940;4.034;2023-08-24T11:42:53;23.20;99.90
52267;DHT22;38223;50.940;4.034;2023-08-24T11:45:30;23.10;99.90
52267;DHT22;38223;50.940;4.034;2023-08-24T11:48:06;23.00;99.90
52267;DHT22;38223;50.940;4.034;2023-08-24T11:50:38;23.00;99.90
52267;DHT22;38223;50.940;4.034;2023-08-24T11:53:08;23.00;99.90
52267;DHT22;38223;50.940;4.034;2023-08-24T11:55:44;22.80;99.90
52267;DHT22;38223;50.940;4.034;2023-08-24T11:58:17;22.70;99.90
52267;DHT22;38223;50.940;4.034;2023-08-24T12:00:50;22.70;99.90
52267;DHT22;38223;50.940;4.034;2023-08-24T12:03:22;22.70;99.90
52267;DHT22;38223;50.940;4.034;2023-08-24T12:05:58;22.80;99.90
52267;DHT22;38223;50.940;4.034;2023-08-24T12:08:26;22.80;99.90
52267;DHT22;38223;50.940;4.034;2023-08-24T12:10:57;22.80;99.90
52267;DHT22;38223;50.940;4.034;2023-08-24T12:13:25;22.70;99.90
52267;DHT22;38223;50.940;4.034;2023-08-24T12:15:54;22.70;99.90
52267;DHT22;38223;50.940;4.034;2023-08-24T12:18:26;22.70;99.90
52267;DHT22;38223;50.940;4.034;2023-08-24T12:20:58;22.70;99.90
52267;DHT22;38223;50.940;4.034;2023-08-24T12:23:28;22.90;99.90
52267;DHT22;38223;50.940;4.034;2023-08-24T12:26:02;23.00;99.90
52267;DHT22;38223;50.940;4.034;2023-08-24T12:28:37;23.10;99.90
52267;DHT22;38223;50.940;4.034;2023-08-24T12:31:13;23.10;99.90
52267;DHT22;38223;50.940;4.034;2023-08-24T12:33:47;23.00;99.90
52267;DHT22;38223;50.940;4.034;2023-08-24T12:36:17;22.90;99.90
52267;DHT22;38223;50.940;4.034;2023-08-24T12:38:50;22.90;99.90
52267;DHT22;38223;50.940;4.034;2023-08-24T12:41:23;22.90;99.90
52267;DHT22;38223;50.940;4.034;2023-08-24T12:44:00;22.90;99.90
52267;DHT22;38223;50.940;4.034;2023-08-24T12:46:33;22.90;99.90
52267;DHT22;38223;50.940;4.034;2023-08-24T12:49:06;22.90;99.90
52267;DHT22;38223;50.940;4.034;2023-08-24T12:51:34;22.80;99.90
52267;DHT22;38223;50.940;4.034;2023-08-24T12:54:05;22.80;99.90
52267;DHT22;38223;50.940;4.034;2023-08-24T12:56:44;22.80;99.90
52267;DHT22;38223;50.940;4.034;2023-08-24T12:59:15;22.80;99.90
52267;DHT22;38223;50.940;4.034;2023-08-24T13:01:44;22.60;99.90
52267;DHT22;38223;50.940;4.034;2023-08-24T13:04:14;22.70;99.90
52267;DHT22;38223;50.940;4.034;2023-08-24T13:06:48;22.70;99.90
52267;DHT22;38223;50.940;4.034;2023-08-24T13:09:18;22.80;99.90
52267;DHT22;38223;50.940;4.034;2023-08-24T13:11:54;22.80;99.90
52267;DHT22;38223;50.940;4.034;2023-08-24T13:14:24;22.90;99.90
52267;DHT22;38223;50.940;4.034;2023-08-24T13:17:01;22.90;99.90
52267;DHT22;38223;50.940;4.034;2023-08-24T13:19:32;22.80;99.90
52267;DHT22;38223;50.940;4.034;2023-08-24T13:22:02;22.80;99.90
52267;DHT22;38223;50.940;4.034;2023-08-24T13:24:35;22.90;99.90
52267;DHT22;38223;50.940;4.034;2023-08-24T13:27:04;22.90;99.90
52267;DHT22;38223;50.940;4.034;2023-08-24T13:29:36;22.90;99.90
52267;DHT22;38223;50.940;4.034;2023-08-24T13:32:14;22.80;99.90
52267;DHT22;38223;50.940;4.034;2023-08-24T13:34:42;22.80;99.90
52267;DHT22;38223;50.940;4.034;2023-08-24T13:37:18;22.80;99.90
52267;DHT22;38223;50.940;4.034;2023-08-24T13:39:50;22.90;99.90
52267;DHT22;38223;50.940;4.034;2023-08-24T13:42:21;22.90;99.90
52267;DHT22;38223;50.940;4.034;2023-08-24T13:44:51;22.90;99.90
52267;DHT22;38223;50.940;4.034;2023-08-24T13:47:25;23.00;99.90
52267;DHT22;38223;50.940;4.034;2023-08-24T13:49:52;23.10;99.90
52267;DHT22;38223;50.940;4.034;2023-08-24T13:52:28;23.20;99.90
52267;DHT22;38223;50.940;4.034;2023-08-24T13:54:59;23.30;99.90
52267;DHT22;38223;50.940;4.034;2023-08-24T13:57:31;23.30;99.90
52267;DHT22;38223;50.940;4.034;2023-08-24T14:00:03;23.40;99.90
52267;DHT22;38223;50.940;4.034;2023-08-24T14:02:37;23.50;99.90
52267;DHT22;38223;50.940;4.034;2023-08-24T14:05:11;23.40;99.90
52267;DHT22;38223;50.940;4.034;2023-08-24T14:07:41;23.40;99.90
52267;DHT22;38223;50.940;4.034;2023-08-24T14:10:13;23.40;99.90
52267;DHT22;38223;50.940;4.034;2023-08-24T14:12:42;23.40;99.90
52267;DHT22;38223;50.940;4.034;2023-08-24T14:15:14;23.40;99.90
52267;DHT22;38223;50.940;4.034;2023-08-24T14:17:45;23.40;99.90
52267;DHT22;38223;50.940;4.034;2023-08-24T14:20:24;23.40;99.90
52267;DHT22;38223;50.940;4.034;2023-08-24T14:22:57;23.40;99.90
52267;DHT22;38223;50.940;4.034;2023-08-24T14:25:27;23.50;99.90
52267;DHT22;38223;50.940;4.034;2023-08-24T14:27:59;23.60;99.90
52267;DHT22;38223;50.940;4.034;2023-08-24T14:30:35;23.70;99.90
52267;DHT22;38223;50.940;4.034;2023-08-24T14:33:04;23.80;99.90
52267;DHT22;38223;50.940;4.034;2023-08-24T14:35:32;23.90;99.90
52267;DHT22;38223;50.940;4.034;2023-08-24T14:38:00;24.00;99.90
52267;DHT22;38223;50.940;4.034;2023-08-24T14:40:31;23.90;99.90
52267;DHT22;38223;50.940;4.034;2023-08-24T14:43:04;23.90;99.90
52267;DHT22;38223;50.940;4.034;2023-08-24T14:45:34;23.90;99.90
52267;DHT22;38223;50.940;4.034;2023-08-24T14:48:05;23.90;99.90
52267;DHT22;38223;50.940;4.034;2023-08-24T14:50:38;23.80;99.90
52267;DHT22;38223;50.940;4.034;2023-08-24T14:53:08;23.80;99.90
52267;DHT22;38223;50.940;4.034;2023-08-24T14:55:41;23.80;99.90
52267;DHT22;38223;50.940;4.034;2023-08-24T14:58:15;23.80;99.90
52267;DHT22;38223;50.940;4.034;2023-08-24T15:00:48;23.70;99.90
52267;DHT22;38223;50.940;4.034;2023-08-24T15:03:23;23.70;99.90
52267;DHT22;38223;50.940;4.034;2023-08-24T15:06:00;23.80;99.90
52267;DHT22;38223;50.940;4.034;2023-08-24T15:08:29;23.80;99.90
52267;DHT22;38223;50.940;4.034;2023-08-24T15:11:04;23.80;99.90
52267;DHT22;38223;50.940;4.034;2023-08-24T15:13:33;23.80;99.90
52267;DHT22;38223;50.940;4.034;2023-08-24T15:16:02;23.80;99.90
52267;DHT22;38223;50.940;4.034;2023-08-24T15:18:33;23.90;99.90
52267;DHT22;38223;50.940;4.034;2023-08-24T15:21:05;24.00;99.90
52267;DHT22;38223;50.940;4.034;2023-08-24T15:23:41;24.00;99.90
52267;DHT22;38223;50.940;4.034;2023-08-24T15:26:15;24.00;99.90
52267;DHT22;38223;50.940;4.034;2023-08-24T15:29:15;24.10;99.90
52267;DHT22;38223;50.940;4.034;2023-08-24T15:31:50;24.30;99.90
52267;DHT22;38223;50.940;4.034;2023-08-24T15:34:20;24.50;99.90
52267;DHT22;38223;50.940;4.034;2023-08-24T15:36:51;24.70;99.90
52267;DHT22;38223;50.940;4.034;2023-08-24T15:39:21;25.00;99.90
52267;DHT22;38223;50.940;4.034;2023-08-24T15:41:51;25.50;99.90
52267;DHT22;38223;50.940;4.034;2023-08-24T15:44:22;25.50;99.90
52267;DHT22;38223;50.940;4.034;2023-08-24T15:46:54;25.50;99.90
52267;DHT22;38223;50.940;4.034;2023-08-24T15:49:24;25.60;99.90
52267;DHT22;38223;50.940;4.034;2023-08-24T15:51:54;25.50;99.90
52267;DHT22;38223;50.940;4.034;2023-08-24T15:54:25;25.40;99.90
52267;DHT22;38223;50.940;4.034;2023-08-24T15:56:54;25.40;99.90
52267;DHT22;38223;50.940;4.034;2023-08-24T15:59:24;25.50;99.90
52267;DHT22;38223;50.940;4.034;2023-08-24T16:01:52;25.80;99.90
52267;DHT22;38223;50.940;4.034;2023-08-24T16:04:24;25.80;99.90